sensor_id;sensor_type;location;lat;lon;timestamp;pressure;altitude;pressure_sealevel;temperature;humidity
49423;BME280;36998;51.974;20.150;2022-12-10T00:01:52;99130.75;;;5.56;60.60
49423;BME280;36998;51.974;20.150;2022-12-10T00:04:18;99129.22;;;5.54;60.51
49423;BME280;36998;51.974;20.150;2022-12-10T00:06:44;99128.19;;;5.55;60.40
49423;BME280;36998;51.974;20.150;2022-12-10T00:09:13;99127.53;;;5.53;60.27
49423;BME280;36998;51.974;20.150;2022-12-10T00:11:39;99131.88;;;5.54;60.45
49423;BME280;36998;51.974;20.150;2022-12-10T00:14:05;99131.88;;;5.54;60.27
49423;BME280;36998;51.974;20.150;2022-12-10T00:16:32;99128.69;;;5.50;60.39
49423;BME280;36998;51.974;20.150;2022-12-10T00:18:59;99123.16;;;5.52;60.34
49423;BME280;36998;51.974;20.150;2022-12-10T00:21:27;99127.84;;;5.50;60.50
49423;BME280;36998;51.974;20.150;2022-12-10T00:23:54;99122.81;;;5.47;60.50
49423;BME280;36998;51.974;20.150;2022-12-10T00:26:24;99121.13;;;5.46;60.59
49423;BME280;36998;51.974;20.150;2022-12-10T00:28:51;99120.47;;;5.44;60.84
49423;BME280;36998;51.974;20.150;2022-12-10T00:31:23;99125.97;;;5.42;60.65
49423;BME280;36998;51.974;20.150;2022-12-10T00:33:50;99115.94;;;5.44;60.79
49423;BME280;36998;51.974;20.150;2022-12-10T00:36:24;99121.97;;;5.46;60.49
49423;BME280;36998;51.974;20.150;2022-12-10T00:38:51;99129.47;;;5.43;60.55
49423;BME280;36998;51.974;20.150;2022-12-10T00:41:18;99133.84;;;5.44;60.87
49423;BME280;36998;51.974;20.150;2022-12-10T00:43:44;99139.53;;;5.49;60.60
49423;BME280;36998;51.974;20.150;2022-12-10T00:46:11;99143.75;;;5.51;60.72
49423;BME280;36998;51.974;20.150;2022-12-10T00:48:36;99145.28;;;5.54;60.59
49423;BME280;36998;51.974;20.150;2022-12-10T00:51:06;99142.91;;;5.51;60.84
49423;BME280;36998;51.974;20.150;2022-12-10T00:53:35;99142.09;;;5.50;60.90
49423;BME280;36998;51.974;20.150;2022-12-10T00:56:01;99139.41;;;5.50;60.33
49423;BME280;36998;51.974;20.150;2022-12-10T00:58:28;99137.69;;;5.49;60.66
49423;BME280;36998;51.974;20.150;2022-12-10T01:00:54;99136.03;;;5.48;60.82
49423;BME280;36998;51.974;20.150;2022-12-10T01:03:20;99127.16;;;5.48;60.65
49423;BME280;36998;51.974;20.150;2022-12-10T01:05:46;99126.00;;;5.50;60.69
49423;BME280;36998;51.974;20.150;2022-12-10T01:08:12;99129.53;;;5.51;60.69
49423;BME280;36998;51.974;20.150;2022-12-10T01:10:38;99138.88;;;5.47;60.75
49423;BME280;36998;51.974;20.150;2022-12-10T01:13:04;99131.81;;;5.46;60.47
49423;BME280;36998;51.974;20.150;2022-12-10T01:15:30;99123.13;;;5.44;60.84
49423;BME280;36998;51.974;20.150;2022-12-10T01:17:56;99123.75;;;5.37;60.58
49423;BME280;36998;51.974;20.150;2022-12-10T01:20:22;99125.44;;;5.38;60.75
49423;BME280;36998;51.974;20.150;2022-12-10T01:22:47;99116.75;;;5.36;60.77
49423;BME280;36998;51.974;20.150;2022-12-10T01:25:13;99117.88;;;5.34;61.01
49423;BME280;36998;51.974;20.150;2022-12-10T01:27:38;99111.19;;;5.30;60.90
49423;BME280;36998;51.974;20.150;2022-12-10T01:30:04;99118.50;;;5.28;61.05
49423;BME280;36998;51.974;20.150;2022-12-10T01:32:30;99117.81;;;5.26;61.11
49423;BME280;36998;51.974;20.150;2022-12-10T01:34:56;99122.03;;;5.28;60.90
49423;BME280;36998;51.974;20.150;2022-12-10T01:37:21;99124.22;;;5.33;60.90
49423;BME280;36998;51.974;20.150;2022-12-10T01:39:47;99127.28;;;5.38;61.04
49423;BME280;36998;51.974;20.150;2022-12-10T01:42:13;99122.09;;;5.36;61.11
49423;BME280;36998;51.974;20.150;2022-12-10T01:47:08;99115.88;;;5.36;61.22
49423;BME280;36998;51.974;20.150;2022-12-10T01:49:38;99117.56;;;5.37;61.08
49423;BME280;36998;51.974;20.150;2022-12-10T01:52:05;99106.13;;;5.53;60.71
49423;BME280;36998;51.974;20.150;2022-12-10T01:54:34;99098.13;;;5.35;61.20
49423;BME280;36998;51.974;20.150;2022-12-10T01:57:06;99099.97;;;5.34;61.20
49423;BME280;36998;51.974;20.150;2022-12-10T01:59:33;99105.66;;;5.31;61.05
49423;BME280;36998;51.974;20.150;2022-12-10T02:08:23;99111.22;;;5.38;61.17
49423;BME280;36998;51.974;20.150;2022-12-10T02:16:04;99109.84;;;5.34;61.20
49423;BME280;36998;51.974;20.150;2022-12-10T02:18:43;99116.19;;;5.33;61.21
49423;BME280;36998;51.974;20.150;2022-12-10T02:21:18;99123.06;;;5.35;61.06
49423;BME280;36998;51.974;20.150;2022-12-10T02:23:49;99117.06;;;5.33;61.29
49423;BME280;36998;51.974;20.150;2022-12-10T02:26:34;99104.00;;;5.38;61.08
49423;BME280;36998;51.974;20.150;2022-12-10T02:29:21;99109.53;;;5.37;61.27
49423;BME280;36998;51.974;20.150;2022-12-10T02:31:53;99117.06;;;5.33;61.26
49423;BME280;36998;51.974;20.150;2022-12-10T02:34:21;99115.53;;;5.31;61.33
49423;BME280;36998;51.974;20.150;2022-12-10T02:36:50;99125.22;;;5.32;60.98
49423;BME280;36998;51.974;20.150;2022-12-10T02:39:26;99124.09;;;5.34;61.26
49423;BME280;36998;51.974;20.150;2022-12-10T02:41:58;99129.13;;;5.37;61.30
49423;BME280;36998;51.974;20.150;2022-12-10T02:44:27;99132.13;;;5.34;60.75
49423;BME280;36998;51.974;20.150;2022-12-10T02:46:56;99134.09;;;5.32;61.45
49423;BME280;36998;51.974;20.150;2022-12-10T02:49:30;99123.38;;;5.32;60.76
49423;BME280;36998;51.974;20.150;2022-12-10T02:51:59;99114.47;;;5.50;60.64
49423;BME280;36998;51.974;20.150;2022-12-10T02:54:51;99120.88;;;5.31;61.06
49423;BME280;36998;51.974;20.150;2022-12-10T02:57:51;99116.47;;;5.22;61.48
49423;BME280;36998;51.974;20.150;2022-12-10T03:00:23;99114.94;;;5.19;61.44
49423;BME280;36998;51.974;20.150;2022-12-10T03:05:50;99109.91;;;5.16;61.22
49423;BME280;36998;51.974;20.150;2022-12-10T03:08:21;99116.66;;;5.20;61.70
49423;BME280;36998;51.974;20.150;2022-12-10T03:10:55;99110.09;;;5.23;61.59
49423;BME280;36998;51.974;20.150;2022-12-10T03:13:28;99113.47;;;5.25;61.43
49423;BME280;36998;51.974;20.150;2022-12-10T03:15:56;99114.63;;;5.22;61.23
49423;BME280;36998;51.974;20.150;2022-12-10T03:18:24;99114.31;;;5.25;61.44
49423;BME280;36998;51.974;20.150;2022-12-10T03:20:53;99115.63;;;5.21;61.43
49423;BME280;36998;51.974;20.150;2022-12-10T03:23:21;99111.63;;;5.25;61.47
49423;BME280;36998;51.974;20.150;2022-12-10T03:25:49;99119.00;;;5.23;61.37
49423;BME280;36998;51.974;20.150;2022-12-10T03:28:18;99123.19;;;5.26;61.76
49423;BME280;36998;51.974;20.150;2022-12-10T03:30:46;99124.56;;;5.30;61.25
49423;BME280;36998;51.974;20.150;2022-12-10T03:33:13;99118.50;;;5.28;61.41
49423;BME280;36998;51.974;20.150;2022-12-10T03:35:39;99119.53;;;5.27;61.40
49423;BME280;36998;51.974;20.150;2022-12-10T03:38:06;99117.69;;;5.27;61.37
49423;BME280;36998;51.974;20.150;2022-12-10T03:40:32;99119.34;;;5.28;61.50
49423;BME280;36998;51.974;20.150;2022-12-10T03:42:58;99115.00;;;5.27;61.75
49423;BME280;36998;51.974;20.150;2022-12-10T03:45:23;99119.03;;;5.31;61.67
49423;BME280;36998;51.974;20.150;2022-12-10T03:47:49;99119.03;;;5.31;61.22
49423;BME280;36998;51.974;20.150;2022-12-10T03:50:15;99121.19;;;5.28;61.25
49423;BME280;36998;51.974;20.150;2022-12-10T03:52:40;99126.38;;;5.29;61.32
49423;BME280;36998;51.974;20.150;2022-12-10T03:55:06;99121.03;;;5.29;61.13
49423;BME280;36998;51.974;20.150;2022-12-10T03:57:33;99120.88;;;5.31;61.42
49423;BME280;36998;51.974;20.150;2022-12-10T03:59:58;99122.41;;;5.33;61.16
49423;BME280;36998;51.974;20.150;2022-12-10T04:02:24;99120.41;;;5.35;61.40
49423;BME280;36998;51.974;20.150;2022-12-10T04:04:50;99105.34;;;5.34;61.24
49423;BME280;36998;51.974;20.150;2022-12-10T04:07:15;99103.50;;;5.35;61.02
49423;BME280;36998;51.974;20.150;2022-12-10T04:09:41;99099.97;;;5.34;61.16
49423;BME280;36998;51.974;20.150;2022-12-10T04:12:07;99113.69;;;5.31;61.23
49423;BME280;36998;51.974;20.150;2022-12-10T04:14:32;99113.84;;;5.30;61.37
49423;BME280;36998;51.974;20.150;2022-12-10T04:17:17;99115.84;;;5.28;61.42
49423;BME280;36998;51.974;20.150;2022-12-10T04:19:42;99106.78;;;5.21;61.36
49423;BME280;36998;51.974;20.150;2022-12-10T04:22:09;99119.63;;;5.17;61.52
49423;BME280;36998;51.974;20.150;2022-12-10T04:24:54;99122.94;;;5.11;61.76
49423;BME280;36998;51.974;20.150;2022-12-10T04:27:39;99125.53;;;5.03;61.74
49423;BME280;36998;51.974;20.150;2022-12-10T04:30:07;99127.84;;;4.98;61.96
49423;BME280;36998;51.974;20.150;2022-12-10T04:32:33;99129.03;;;5.03;62.01
49423;BME280;36998;51.974;20.150;2022-12-10T04:34:59;99131.72;;;5.03;62.14
49423;BME280;36998;51.974;20.150;2022-12-10T04:37:27;99129.03;;;5.03;61.81
49423;BME280;36998;51.974;20.150;2022-12-10T04:39:53;99127.53;;;5.01;62.24
49423;BME280;36998;51.974;20.150;2022-12-10T04:42:20;99130.88;;;5.03;61.86
49423;BME280;36998;51.974;20.150;2022-12-10T04:44:46;99133.41;;;5.04;61.75
49423;BME280;36998;51.974;20.150;2022-12-10T04:47:13;99130.75;;;5.04;61.93
49423;BME280;36998;51.974;20.150;2022-12-10T04:49:40;99132.59;;;5.04;62.05
49423;BME280;36998;51.974;20.150;2022-12-10T04:52:07;99134.41;;;5.03;61.76
49423;BME280;36998;51.974;20.150;2022-12-10T04:54:32;99134.94;;;5.07;61.96
49423;BME280;36998;51.974;20.150;2022-12-10T04:56:58;99138.81;;;5.12;61.80
49423;BME280;36998;51.974;20.150;2022-12-10T04:59:23;99144.47;;;5.09;62.06
49423;BME280;36998;51.974;20.150;2022-12-10T05:01:49;99148.53;;;5.13;62.12
49423;BME280;36998;51.974;20.150;2022-12-10T05:04:17;99142.63;;;5.10;61.87
49423;BME280;36998;51.974;20.150;2022-12-10T05:06:43;99142.97;;;5.07;62.01
49423;BME280;36998;51.974;20.150;2022-12-10T05:09:13;99130.25;;;5.09;61.96
49423;BME280;36998;51.974;20.150;2022-12-10T05:11:39;99135.31;;;5.12;61.93
49423;BME280;36998;51.974;20.150;2022-12-10T05:14:05;99140.13;;;5.08;61.78
49423;BME280;36998;51.974;20.150;2022-12-10T05:16:32;99146.50;;;5.07;61.91
49423;BME280;36998;51.974;20.150;2022-12-10T05:18:58;99143.66;;;5.09;62.18
49423;BME280;36998;51.974;20.150;2022-12-10T05:21:26;99146.31;;;5.09;61.96
49423;BME280;36998;51.974;20.150;2022-12-10T05:24:12;99146.31;;;5.09;62.11
49423;BME280;36998;51.974;20.150;2022-12-10T05:26:38;99143.59;;;5.01;62.68
49423;BME280;36998;51.974;20.150;2022-12-10T05:29:04;99147.25;;;5.00;62.33
49423;BME280;36998;51.974;20.150;2022-12-10T05:31:30;99149.47;;;5.04;62.15
49423;BME280;36998;51.974;20.150;2022-12-10T05:33:57;99153.00;;;5.05;62.28
49423;BME280;36998;51.974;20.150;2022-12-10T05:36:25;99150.31;;;5.05;62.47
49423;BME280;36998;51.974;20.150;2022-12-10T05:38:51;99144.66;;;5.08;62.44
49423;BME280;36998;51.974;20.150;2022-12-10T05:41:20;99138.16;;;5.10;62.26
49423;BME280;36998;51.974;20.150;2022-12-10T05:43:46;99146.31;;;5.09;61.97
49423;BME280;36998;51.974;20.150;2022-12-10T05:46:16;99147.69;;;5.13;62.10
49423;BME280;36998;51.974;20.150;2022-12-10T05:48:42;99155.25;;;5.18;62.08
49423;BME280;36998;51.974;20.150;2022-12-10T05:51:12;99147.91;;;5.20;62.21
49423;BME280;36998;51.974;20.150;2022-12-10T05:53:38;99145.38;;;5.18;62.01
49423;BME280;36998;51.974;20.150;2022-12-10T05:56:06;99151.75;;;5.17;62.19
49423;BME280;36998;51.974;20.150;2022-12-10T05:58:33;99164.13;;;5.18;61.92
49423;BME280;36998;51.974;20.150;2022-12-10T06:00:59;99166.81;;;5.18;62.19
49423;BME280;36998;51.974;20.150;2022-12-10T06:03:26;99174.13;;;5.16;61.82
49423;BME280;36998;51.974;20.150;2022-12-10T06:05:52;99168.66;;;5.18;61.95
49423;BME280;36998;51.974;20.150;2022-12-10T06:08:19;99171.47;;;5.16;61.84
49423;BME280;36998;51.974;20.150;2022-12-10T06:10:44;99166.28;;;5.14;61.91
49423;BME280;36998;51.974;20.150;2022-12-10T06:13:10;99185.16;;;5.13;61.83
49423;BME280;36998;51.974;20.150;2022-12-10T06:15:39;99176.50;;;5.19;61.92
49423;BME280;36998;51.974;20.150;2022-12-10T06:18:05;99185.75;;;5.25;61.85
49423;BME280;36998;51.974;20.150;2022-12-10T06:20:30;99179.03;;;5.21;62.02
49423;BME280;36998;51.974;20.150;2022-12-10T06:22:56;99182.56;;;5.21;61.73
49423;BME280;36998;51.974;20.150;2022-12-10T06:25:22;99182.56;;;5.21;61.81
49423;BME280;36998;51.974;20.150;2022-12-10T06:27:47;99191.28;;;5.23;61.97
49423;BME280;36998;51.974;20.150;2022-12-10T06:30:13;99196.47;;;5.25;61.91
49423;BME280;36998;51.974;20.150;2022-12-10T06:32:39;99190.09;;;5.26;61.66
49423;BME280;36998;51.974;20.150;2022-12-10T06:35:05;99198.66;;;5.29;61.59
49423;BME280;36998;51.974;20.150;2022-12-10T06:37:31;99197.81;;;5.29;61.69
49423;BME280;36998;51.974;20.150;2022-12-10T06:39:57;99200.38;;;5.30;61.57
49423;BME280;36998;51.974;20.150;2022-12-10T06:42:22;99209.06;;;5.32;61.61
49423;BME280;36998;51.974;20.150;2022-12-10T06:44:48;99201.34;;;5.29;61.63
49423;BME280;36998;51.974;20.150;2022-12-10T06:47:14;99199.84;;;5.27;61.58
49423;BME280;36998;51.974;20.150;2022-12-10T06:49:40;99205.63;;;5.22;61.67
49423;BME280;36998;51.974;20.150;2022-12-10T06:52:06;99211.69;;;5.24;61.95
49423;BME280;36998;51.974;20.150;2022-12-10T06:54:32;99210.69;;;5.25;61.96
49423;BME280;36998;51.974;20.150;2022-12-10T06:56:58;99199.66;;;5.28;61.56
49423;BME280;36998;51.974;20.150;2022-12-10T06:59:24;99197.69;;;5.30;61.88
49423;BME280;36998;51.974;20.150;2022-12-10T07:01:50;99198.53;;;5.31;61.92
49423;BME280;36998;51.974;20.150;2022-12-10T07:04:16;99200.19;;;5.32;61.57
49423;BME280;36998;51.974;20.150;2022-12-10T07:06:41;99207.69;;;5.28;61.56
49423;BME280;36998;51.974;20.150;2022-12-10T07:09:07;99205.84;;;5.29;61.84
49423;BME280;36998;51.974;20.150;2022-12-10T07:11:35;99203.34;;;5.27;62.03
49423;BME280;36998;51.974;20.150;2022-12-10T07:14:01;99203.34;;;5.27;61.53
49423;BME280;36998;51.974;20.150;2022-12-10T07:16:28;99208.84;;;5.26;62.02
49423;BME280;36998;51.974;20.150;2022-12-10T07:18:56;99210.38;;;5.28;61.80
49423;BME280;36998;51.974;20.150;2022-12-10T07:21:24;99203.56;;;5.34;61.54
49423;BME280;36998;51.974;20.150;2022-12-10T07:23:54;99206.59;;;5.39;61.82
49423;BME280;36998;51.974;20.150;2022-12-10T07:26:24;99202.72;;;5.33;61.58
49423;BME280;36998;51.974;20.150;2022-12-10T07:28:50;99206.78;;;5.37;61.49
49423;BME280;36998;51.974;20.150;2022-12-10T07:31:18;99199.56;;;5.38;61.45
49423;BME280;36998;51.974;20.150;2022-12-10T07:33:44;99202.13;;;5.39;61.74
49423;BME280;36998;51.974;20.150;2022-12-10T07:36:11;99200.41;;;5.38;61.48
49423;BME280;36998;51.974;20.150;2022-12-10T07:38:37;99202.13;;;5.39;61.61
49423;BME280;36998;51.974;20.150;2022-12-10T07:41:10;99203.41;;;5.35;61.34
49423;BME280;36998;51.974;20.150;2022-12-10T07:43:37;99206.06;;;5.35;61.58
49423;BME280;36998;51.974;20.150;2022-12-10T07:46:11;99222.34;;;5.42;61.41
49423;BME280;36998;51.974;20.150;2022-12-10T07:48:39;99218.19;;;5.39;61.33
49423;BME280;36998;51.974;20.150;2022-12-10T07:51:05;99221.00;;;5.38;61.40
49423;BME280;36998;51.974;20.150;2022-12-10T07:53:31;99221.00;;;5.38;61.41
49423;BME280;36998;51.974;20.150;2022-12-10T07:55:57;99204.94;;;5.38;61.55
49423;BME280;36998;51.974;20.150;2022-12-10T07:58:22;99213.13;;;5.36;61.37
49423;BME280;36998;51.974;20.150;2022-12-10T08:00:48;99208.31;;;5.40;61.66
49423;BME280;36998;51.974;20.150;2022-12-10T08:03:14;99208.44;;;5.38;61.54
49423;BME280;36998;51.974;20.150;2022-12-10T08:05:40;99200.09;;;5.42;61.35
49423;BME280;36998;51.974;20.150;2022-12-10T08:08:05;99204.00;;;5.47;61.20
49423;BME280;36998;51.974;20.150;2022-12-10T08:10:34;99195.97;;;5.47;61.21
49423;BME280;36998;51.974;20.150;2022-12-10T08:12:59;99200.16;;;5.50;61.33
49423;BME280;36998;51.974;20.150;2022-12-10T08:15:25;99190.59;;;5.47;61.43
49423;BME280;36998;51.974;20.150;2022-12-10T08:17:50;99192.44;;;5.47;61.19
49423;BME280;36998;51.974;20.150;2022-12-10T08:20:16;99190.81;;;5.54;61.25
49423;BME280;36998;51.974;20.150;2022-12-10T08:22:41;99193.50;;;5.54;61.60
49423;BME280;36998;51.974;20.150;2022-12-10T08:25:07;99205.94;;;5.63;61.17
49423;BME280;36998;51.974;20.150;2022-12-10T08:27:33;99203.78;;;5.67;61.34
49423;BME280;36998;51.974;20.150;2022-12-10T08:29:58;99213.03;;;5.72;61.03
49423;BME280;36998;51.974;20.150;2022-12-10T08:32:24;99217.06;;;5.76;60.76
49423;BME280;36998;51.974;20.150;2022-12-10T08:34:49;99213.44;;;5.85;60.64
49423;BME280;36998;51.974;20.150;2022-12-10T08:37:16;99222.31;;;5.86;60.93
49423;BME280;36998;51.974;20.150;2022-12-10T08:39:42;99226.59;;;5.97;60.80
49423;BME280;36998;51.974;20.150;2022-12-10T08:42:07;99233.16;;;6.02;60.55
49423;BME280;36998;51.974;20.150;2022-12-10T08:44:33;99222.94;;;6.06;60.12
49423;BME280;36998;51.974;20.150;2022-12-10T08:47:01;99230.81;;;6.07;60.39
49423;BME280;36998;51.974;20.150;2022-12-10T08:49:27;99234.34;;;6.08;60.43
49423;BME280;36998;51.974;20.150;2022-12-10T08:51:53;99226.97;;;6.10;60.11
49423;BME280;36998;51.974;20.150;2022-12-10T08:54:18;99229.16;;;6.15;60.08
49423;BME280;36998;51.974;20.150;2022-12-10T08:56:44;99236.38;;;6.14;60.05
49423;BME280;36998;51.974;20.150;2022-12-10T08:59:10;99240.25;;;6.12;60.09
49423;BME280;36998;51.974;20.150;2022-12-10T09:01:35;99237.72;;;6.10;59.85
49423;BME280;36998;51.974;20.150;2022-12-10T09:04:01;99232.53;;;6.08;59.44
49423;BME280;36998;51.974;20.150;2022-12-10T09:06:27;99223.47;;;6.09;59.46
49423;BME280;36998;51.974;20.150;2022-12-10T09:08:53;99223.63;;;6.08;59.83
49423;BME280;36998;51.974;20.150;2022-12-10T09:11:22;99216.78;;;6.14;59.62
49423;BME280;36998;51.974;20.150;2022-12-10T09:13:48;99230.69;;;6.17;59.82
49423;BME280;36998;51.974;20.150;2022-12-10T09:16:14;99230.56;;;6.19;59.59
49423;BME280;36998;51.974;20.150;2022-12-10T09:18:40;99234.75;;;6.21;59.74
49423;BME280;36998;51.974;20.150;2022-12-10T09:21:08;99228.22;;;6.24;59.57
49423;BME280;36998;51.974;20.150;2022-12-10T09:23:34;99235.94;;;6.27;59.25
49423;BME280;36998;51.974;20.150;2022-12-10T09:26:00;99234.94;;;6.28;59.43
49423;BME280;36998;51.974;20.150;2022-12-10T09:28:26;99233.44;;;6.25;59.46
49423;BME280;36998;51.974;20.150;2022-12-10T09:30:56;99229.59;;;6.28;59.24
49423;BME280;36998;51.974;20.150;2022-12-10T09:33:22;99231.91;;;6.31;58.99
49423;BME280;36998;51.974;20.150;2022-12-10T09:35:48;99230.75;;;6.33;59.39
49423;BME280;36998;51.974;20.150;2022-12-10T09:38:14;99227.75;;;6.28;59.06
49423;BME280;36998;51.974;20.150;2022-12-10T09:40:45;99231.41;;;6.27;59.06
49423;BME280;36998;51.974;20.150;2022-12-10T09:43:19;99228.06;;;6.25;59.12
49423;BME280;36998;51.974;20.150;2022-12-10T09:51:10;99233.44;;;6.33;59.04
49423;BME280;36998;51.974;20.150;2022-12-10T09:53:38;99234.47;;;6.32;58.79
49423;BME280;36998;51.974;20.150;2022-12-10T09:56:05;99234.59;;;6.31;58.76
49423;BME280;36998;51.974;20.150;2022-12-10T09:58:33;99234.78;;;6.29;58.96
49423;BME280;36998;51.974;20.150;2022-12-10T10:01:04;99247.34;;;6.29;58.86
49423;BME280;36998;51.974;20.150;2022-12-10T10:03:35;99235.81;;;6.37;58.76
49423;BME280;36998;51.974;20.150;2022-12-10T10:06:03;99239.69;;;6.42;58.77
49423;BME280;36998;51.974;20.150;2022-12-10T10:08:41;99236.69;;;6.45;58.68
49423;BME280;36998;51.974;20.150;2022-12-10T10:11:16;99232.84;;;6.56;58.81
49423;BME280;36998;51.974;20.150;2022-12-10T10:13:50;99234.19;;;6.60;58.41
49423;BME280;36998;51.974;20.150;2022-12-10T10:16:34;99235.06;;;6.61;58.40
49423;BME280;36998;51.974;20.150;2022-12-10T10:19:33;99232.53;;;6.59;58.59
49423;BME280;36998;51.974;20.150;2022-12-10T10:21:59;99231.50;;;6.60;58.39
49423;BME280;36998;51.974;20.150;2022-12-10T10:24:31;99223.19;;;6.71;58.21
49423;BME280;36998;51.974;20.150;2022-12-10T10:27:09;99213.97;;;6.74;58.23
49423;BME280;36998;51.974;20.150;2022-12-10T10:29:36;99208.59;;;6.74;58.32
49423;BME280;36998;51.974;20.150;2022-12-10T10:32:19;99206.91;;;6.73;58.03
49423;BME280;36998;51.974;20.150;2022-12-10T10:34:53;99207.91;;;6.72;58.33
49423;BME280;36998;51.974;20.150;2022-12-10T10:37:25;99196.00;;;6.74;57.89
49423;BME280;36998;51.974;20.150;2022-12-10T10:39:52;99194.16;;;6.75;57.71
49423;BME280;36998;51.974;20.150;2022-12-10T10:42:26;99180.09;;;6.81;58.22
49423;BME280;36998;51.974;20.150;2022-12-10T10:44:53;99182.94;;;6.88;57.80
49423;BME280;36998;51.974;20.150;2022-12-10T10:47:33;99180.91;;;6.90;57.94
49423;BME280;36998;51.974;20.150;2022-12-10T10:49:59;99184.94;;;6.86;58.08
49423;BME280;36998;51.974;20.150;2022-12-10T10:52:28;99188.13;;;6.81;57.87
49423;BME280;36998;51.974;20.150;2022-12-10T10:54:55;99179.91;;;6.83;57.96
49423;BME280;36998;51.974;20.150;2022-12-10T10:57:25;99175.22;;;6.85;57.77
49423;BME280;36998;51.974;20.150;2022-12-10T10:59:55;99169.16;;;6.83;57.72
49423;BME280;36998;51.974;20.150;2022-12-10T11:02:30;99172.22;;;6.88;57.69
49423;BME280;36998;51.974;20.150;2022-12-10T11:04:56;99167.50;;;6.82;57.47
49423;BME280;36998;51.974;20.150;2022-12-10T11:07:37;99162.66;;;6.77;57.46
49423;BME280;36998;51.974;20.150;2022-12-10T11:10:16;99161.13;;;6.74;57.78
49423;BME280;36998;51.974;20.150;2022-12-10T11:12:44;99162.81;;;6.67;57.53
49423;BME280;36998;51.974;20.150;2022-12-10T11:17:53;99166.66;;;6.65;57.52
49423;BME280;36998;51.974;20.150;2022-12-10T11:23:00;99180.41;;;6.62;57.89
49423;BME280;36998;51.974;20.150;2022-12-10T11:34:13;99168.28;;;6.49;57.85
49423;BME280;36998;51.974;20.150;2022-12-10T11:37:35;99175.47;;;6.41;57.84
49423;BME280;36998;51.974;20.150;2022-12-10T11:42:43;99174.13;;;6.37;58.06
49423;BME280;36998;51.974;20.150;2022-12-10T11:45:24;99171.94;;;6.40;58.21
49423;BME280;36998;51.974;20.150;2022-12-10T11:50:41;99169.13;;;6.42;58.25
49423;BME280;36998;51.974;20.150;2022-12-10T12:09:21;99181.91;;;6.72;58.05
49423;BME280;36998;51.974;20.150;2022-12-10T12:14:45;99198.19;;;6.71;57.86
49423;BME280;36998;51.974;20.150;2022-12-10T12:17:23;99195.31;;;6.72;57.93
49423;BME280;36998;51.974;20.150;2022-12-10T12:20:02;99202.22;;;6.75;57.70
49423;BME280;36998;51.974;20.150;2022-12-10T12:22:35;99187.28;;;6.72;57.74
49423;BME280;36998;51.974;20.150;2022-12-10T12:25:20;99196.66;;;6.68;57.64
49423;BME280;36998;51.974;20.150;2022-12-10T12:27:54;99195.16;;;6.66;57.78
49423;BME280;36998;51.974;20.150;2022-12-10T12:30:22;99191.78;;;6.64;57.55
49423;BME280;36998;51.974;20.150;2022-12-10T12:33:12;99199.34;;;6.68;57.79
49423;BME280;36998;51.974;20.150;2022-12-10T12:35:48;99195.84;;;6.68;57.84
49423;BME280;36998;51.974;20.150;2022-12-10T12:40:56;99207.59;;;6.75;57.77
49423;BME280;36998;51.974;20.150;2022-12-10T12:45:58;99218.00;;;6.78;57.43
49423;BME280;36998;51.974;20.150;2022-12-10T12:48:48;99227.22;;;6.84;57.58
49423;BME280;36998;51.974;20.150;2022-12-10T12:51:33;99229.22;;;6.90;57.41
49423;BME280;36998;51.974;20.150;2022-12-10T12:54:00;99230.75;;;6.84;57.31
49423;BME280;36998;51.974;20.150;2022-12-10T13:01:57;99232.41;;;6.77;57.59
49423;BME280;36998;51.974;20.150;2022-12-10T13:04:25;99232.56;;;6.75;57.30
49423;BME280;36998;51.974;20.150;2022-12-10T13:07:29;99241.81;;;6.81;57.66
49423;BME280;36998;51.974;20.150;2022-12-10T13:12:48;99246.50;;;6.71;57.47
49423;BME280;36998;51.974;20.150;2022-12-10T13:15:19;99242.75;;;6.64;57.43
49423;BME280;36998;51.974;20.150;2022-12-10T13:41:34;99237.47;;;6.29;57.90
49423;BME280;36998;51.974;20.150;2022-12-10T13:44:45;99246.84;;;6.25;58.24
49423;BME280;36998;51.974;20.150;2022-12-10T13:52:18;99246.31;;;6.22;58.25
49423;BME280;36998;51.974;20.150;2022-12-10T13:55:02;99239.94;;;6.23;58.57
49423;BME280;36998;51.974;20.150;2022-12-10T13:57:53;99239.78;;;6.24;58.33
49423;BME280;36998;51.974;20.150;2022-12-10T14:00:22;99244.03;;;6.35;58.05
49423;BME280;36998;51.974;20.150;2022-12-10T14:06:14;99239.03;;;6.06;58.61
49423;BME280;36998;51.974;20.150;2022-12-10T14:11:23;99238.66;;;6.01;58.73
49423;BME280;36998;51.974;20.150;2022-12-10T14:13:53;99227.28;;;5.99;58.65
49423;BME280;36998;51.974;20.150;2022-12-10T14:16:23;99232.63;;;5.99;58.82
49423;BME280;36998;51.974;20.150;2022-12-10T14:18:56;99235.31;;;5.99;58.70
49423;BME280;36998;51.974;20.150;2022-12-10T14:21:23;99231.94;;;5.97;58.86
49423;BME280;36998;51.974;20.150;2022-12-10T14:23:50;99233.94;;;5.95;58.78
49423;BME280;36998;51.974;20.150;2022-12-10T14:26:22;99234.41;;;5.90;58.85
49423;BME280;36998;51.974;20.150;2022-12-10T14:29:00;99236.91;;;5.92;58.88
49423;BME280;36998;51.974;20.150;2022-12-10T14:31:44;99232.53;;;5.91;58.97
49423;BME280;36998;51.974;20.150;2022-12-10T14:34:14;99226.16;;;5.83;59.03
49423;BME280;36998;51.974;20.150;2022-12-10T14:36:46;99215.91;;;5.79;58.88
49423;BME280;36998;51.974;20.150;2022-12-10T14:39:14;99206.19;;;5.78;59.25
49423;BME280;36998;51.974;20.150;2022-12-10T14:41:41;99201.13;;;5.75;59.37
49423;BME280;36998;51.974;20.150;2022-12-10T14:44:11;99207.69;;;5.72;59.43
49423;BME280;36998;51.974;20.150;2022-12-10T14:46:38;99208.97;;;5.68;59.13
49423;BME280;36998;51.974;20.150;2022-12-10T14:49:04;99212.34;;;5.70;59.42
49423;BME280;36998;51.974;20.150;2022-12-10T14:51:33;99211.66;;;5.68;59.20
49423;BME280;36998;51.974;20.150;2022-12-10T14:54:02;99219.69;;;5.68;59.23
49423;BME280;36998;51.974;20.150;2022-12-10T14:56:36;99214.84;;;5.72;59.54
49423;BME280;36998;51.974;20.150;2022-12-10T14:59:13;99231.44;;;5.75;59.52
49423;BME280;36998;51.974;20.150;2022-12-10T15:01:43;99240.81;;;5.71;59.37